Fort Saint John, Canada
Current Conditions -  °F | °C
As of 4:28 AM on Friday 24 Oct 2014 (Local Time) from CYXJ Reporting Station
Moderate Fog Moderate Fog  
Wind Chill: -2°   Ceiling: 200
Heat Index: -2°   Visibility: 0.5mi
Dew Point: -3°   Wind: 3mph
Humidity: 93%   Direction: 190°S
Pressure: 29.72"   Gusts: NA
Location:  56.25°N, 120.85°W
Report Text: CYXJ 241028Z 19003KT 1/2SM R29/2800VP6000FT/D FZFG VV002 M02/M03 A2972 RMK FG8 SLP100
Loading
Personal Weather Stations






























Interactive Weather Map
Tropical Storm Tracking
New forecast layout! Learn more

10-Day Weather Forecast

Advertisements
Track Severe Weather on mobile